createdAt,value
2023-04-19T00:01:33.840Z,8.05
2023-04-19T00:05:16.137Z,5.60
2023-04-19T00:08:58.176Z,7.93
2023-04-19T00:12:40.142Z,5.82
2023-04-19T00:16:22.082Z,5.40
2023-04-19T00:20:05.924Z,6.05
2023-04-19T00:23:47.989Z,6.95
2023-04-19T00:27:29.879Z,6.47
2023-04-19T00:31:11.993Z,6.13
2023-04-19T00:34:53.940Z,9.30
2023-04-19T00:38:35.915Z,7.18
2023-04-19T00:42:17.806Z,5.88
2023-04-19T00:45:59.884Z,6.55
2023-04-19T00:49:42.101Z,6.68
2023-04-19T00:53:23.993Z,6.88
2023-04-19T00:57:05.935Z,7.15
2023-04-19T01:00:47.811Z,7.10
2023-04-19T01:04:29.844Z,5.82
2023-04-19T01:08:11.823Z,7.97
2023-04-19T01:11:54.252Z,8.88
2023-04-19T01:15:36.842Z,5.95
2023-04-19T01:19:18.846Z,7.50
2023-04-19T01:23:00.759Z,6.78
2023-04-19T01:26:42.673Z,8.13
2023-04-19T01:30:24.834Z,7.40
2023-04-19T01:34:06.867Z,6.55
2023-04-19T01:37:48.753Z,6.85
2023-04-19T01:41:31.059Z,6.85
2023-04-19T01:45:12.997Z,8.52
2023-04-19T01:48:54.866Z,7.57
2023-04-19T01:52:36.806Z,9.88
2023-04-19T01:56:18.807Z,8.20
2023-04-19T02:00:02.437Z,10.48
2023-04-19T02:03:44.717Z,8.32
2023-04-19T02:07:26.740Z,8.20
2023-04-19T02:11:09.138Z,9.80
2023-04-19T02:14:51.043Z,9.48
2023-04-19T02:18:33.471Z,9.55
2023-04-19T02:22:15.588Z,8.43
2023-04-19T02:25:57.544Z,9.15
2023-04-19T02:29:39.704Z,10.13
2023-04-19T02:33:22.718Z,10.90
2023-04-19T02:37:04.645Z,10.43
2023-04-19T02:40:46.538Z,10.77
2023-04-19T02:44:28.419Z,11.75
2023-04-19T02:48:10.353Z,9.63
2023-04-19T02:51:52.887Z,10.55
2023-04-19T02:55:34.779Z,10.85
2023-04-19T02:59:16.714Z,11.90
2023-04-19T03:02:59.345Z,11.65
2023-04-19T03:06:42.182Z,12.48
2023-04-19T03:10:24.125Z,9.38
2023-04-19T03:14:06.046Z,11.80
2023-04-19T03:17:48.061Z,9.93
2023-04-19T03:21:30.161Z,14.50
2023-04-19T03:25:14.791Z,12.63
2023-04-19T03:28:56.666Z,15.05
2023-04-19T03:32:38.649Z,9.70
2023-04-19T03:36:20.599Z,12.68
2023-04-19T03:40:02.496Z,10.20
2023-04-19T03:43:44.384Z,14.48
2023-04-19T03:47:26.315Z,11.80
2023-04-19T03:51:08.368Z,9.55
2023-04-19T03:54:50.239Z,12.88
2023-04-19T03:58:32.122Z,12.73
2023-04-19T04:02:14.164Z,15.90
2023-04-19T04:05:56.186Z,13.35
2023-04-19T04:09:38.132Z,18.55
2023-04-19T04:13:20.043Z,19.60
2023-04-19T04:17:01.958Z,11.40
2023-04-19T04:20:44.685Z,13.40
2023-04-19T04:24:28.016Z,14.00
2023-04-19T04:28:10.003Z,13.10
2023-04-19T04:31:51.933Z,12.48
2023-04-19T04:35:35.263Z,15.25
2023-04-19T04:39:18.335Z,14.38
2023-04-19T04:43:01.056Z,13.15
2023-04-19T04:46:43.067Z,13.23
2023-04-19T04:50:25.046Z,13.00
2023-04-19T04:54:06.974Z,19.00
2023-04-19T04:57:48.869Z,14.57
2023-04-19T05:01:30.976Z,13.65
2023-04-19T05:05:13.502Z,17.58
2023-04-19T05:08:55.403Z,17.25
2023-04-19T05:12:38.110Z,16.02
2023-04-19T05:16:20.271Z,16.58
2023-04-19T05:20:02.245Z,15.48
2023-04-19T05:23:44.286Z,14.68
2023-04-19T05:27:26.343Z,15.00
2023-04-19T05:31:11.365Z,14.10
2023-04-19T05:34:53.306Z,16.92
2023-04-19T05:38:35.408Z,13.30
2023-04-19T05:42:17.343Z,18.55
2023-04-19T05:45:59.299Z,15.73
2023-04-19T05:49:42.744Z,14.55
2023-04-19T05:53:25.303Z,14.95
2023-04-19T05:57:07.279Z,13.27
2023-04-19T06:00:49.587Z,13.30
2023-04-19T06:04:31.591Z,16.98
2023-04-19T06:08:16.475Z,16.08
2023-04-19T06:11:58.456Z,12.80
2023-04-19T06:15:40.454Z,15.50
2023-04-19T06:19:22.530Z,14.15
2023-04-19T06:23:04.920Z,14.07
2023-04-19T06:26:48.397Z,14.02
2023-04-19T06:30:30.270Z,14.98
2023-04-19T06:34:12.303Z,16.67
2023-04-19T06:37:54.228Z,15.70
2023-04-19T06:41:36.185Z,17.08
2023-04-19T06:45:18.144Z,14.93
2023-04-19T06:49:00.130Z,15.90
2023-04-19T06:52:42.319Z,15.95
2023-04-19T06:56:47.167Z,15.63
2023-04-19T07:00:29.118Z,15.65
2023-04-19T07:04:12.055Z,17.85
2023-04-19T07:07:54.112Z,15.45
2023-04-19T07:11:36.076Z,15.88
2023-04-19T07:15:18.074Z,18.70
2023-04-19T07:18:59.967Z,16.50
2023-04-19T07:22:41.882Z,17.58
2023-04-19T07:26:23.800Z,14.27
2023-04-19T07:30:07.071Z,14.98
2023-04-19T07:33:49.078Z,15.45
2023-04-19T07:37:31.071Z,16.58
2023-04-19T07:41:13.291Z,19.88
2023-04-19T07:44:55.514Z,16.50
2023-04-19T07:48:38.261Z,17.83
2023-04-19T07:52:20.330Z,18.58
2023-04-19T07:56:02.294Z,18.10
2023-04-19T07:59:44.186Z,18.25
2023-04-19T08:03:26.364Z,15.70
2023-04-19T08:07:09.562Z,18.95
2023-04-19T08:10:54.756Z,18.48
2023-04-19T08:14:51.083Z,17.42
2023-04-19T08:18:41.895Z,17.92
2023-04-19T08:22:23.829Z,16.95
2023-04-19T08:26:06.063Z,13.82
2023-04-19T08:29:48.046Z,14.98
2023-04-19T08:33:30.005Z,14.85
2023-04-19T08:37:11.961Z,16.27
2023-04-19T08:40:57.853Z,14.20
2023-04-19T08:44:49.236Z,15.80
2023-04-19T08:48:43.782Z,16.15
2023-04-19T08:52:27.319Z,14.82
2023-04-19T08:56:18.063Z,14.57
2023-04-19T09:00:11.518Z,14.30
2023-04-19T09:04:04.946Z,13.75
2023-04-19T09:07:52.307Z,13.52
2023-04-19T09:11:39.062Z,14.40
2023-04-19T09:19:24.218Z,13.93
2023-04-19T09:23:12.112Z,11.50
2023-04-19T09:30:43.622Z,12.63
2023-04-19T09:34:51.095Z,13.98
2023-04-19T09:38:49.852Z,12.30
2023-04-19T09:46:37.236Z,11.27
2023-04-19T09:50:23.936Z,13.15
2023-04-19T09:54:10.183Z,12.73
2023-04-19T09:57:52.965Z,11.85
2023-04-19T10:01:38.333Z,12.18
2023-04-19T10:05:22.893Z,11.07
2023-04-19T10:09:05.752Z,10.45
2023-04-19T10:13:15.274Z,12.23
2023-04-19T10:16:56.276Z,10.60
2023-04-19T10:20:49.687Z,11.75
2023-04-19T10:24:31.620Z,8.82
2023-04-19T10:28:14.139Z,9.40
2023-04-19T10:31:56.382Z,10.35
2023-04-19T10:35:38.694Z,8.35
2023-04-19T10:39:39.874Z,8.52
2023-04-19T10:43:22.997Z,8.30
2023-04-19T10:47:06.390Z,7.75
2023-04-19T10:51:15.187Z,11.88
2023-04-19T10:54:57.173Z,10.85
2023-04-19T10:59:08.335Z,8.52
2023-04-19T11:02:50.945Z,7.78
2023-04-19T11:06:37.196Z,8.30
2023-04-19T11:10:37.630Z,8.60
2023-04-19T11:14:24.252Z,6.90
2023-04-19T11:18:12.581Z,9.07
2023-04-19T11:21:59.039Z,8.38
2023-04-19T11:25:40.918Z,6.45
2023-04-19T11:29:22.932Z,6.30
2023-04-19T11:33:04.882Z,6.70
2023-04-19T11:36:51.595Z,6.40
2023-04-19T11:40:33.601Z,5.85
2023-04-19T11:44:17.417Z,6.05
2023-04-19T11:48:00.004Z,5.55
2023-04-19T11:51:43.491Z,7.05
2023-04-19T11:55:25.650Z,6.55
2023-04-19T11:59:09.687Z,6.82
2023-04-19T12:02:52.672Z,5.40
2023-04-19T12:06:34.697Z,5.68
2023-04-19T12:10:16.589Z,5.72
2023-04-19T12:14:16.742Z,5.68
2023-04-19T12:18:02.977Z,5.18
2023-04-19T12:21:45.922Z,6.10
2023-04-19T12:25:33.394Z,6.35
2023-04-19T12:29:16.040Z,5.68
2023-04-19T12:32:59.389Z,7.72
2023-04-19T12:36:41.363Z,6.25
2023-04-19T12:40:24.523Z,7.43
2023-04-19T12:44:06.435Z,6.07
2023-04-19T12:47:49.377Z,6.57
2023-04-19T12:51:32.836Z,6.75
2023-04-19T12:55:14.754Z,6.78
2023-04-19T12:58:56.733Z,5.97
2023-04-19T13:02:39.155Z,6.38
2023-04-19T13:06:21.151Z,7.18
2023-04-19T13:10:03.662Z,6.90
2023-04-19T13:13:45.603Z,6.78
2023-04-19T13:17:27.771Z,7.07
2023-04-19T13:21:09.683Z,7.93
2023-04-19T13:24:51.739Z,8.88
2023-04-19T13:28:35.841Z,6.22
2023-04-19T13:32:17.882Z,7.55
2023-04-19T13:36:00.038Z,6.20
2023-04-19T13:39:42.090Z,5.85
2023-04-19T13:43:24.119Z,5.32
2023-04-19T13:47:06.113Z,6.32
2023-04-19T13:50:50.435Z,5.82
2023-04-19T13:54:33.067Z,7.07
2023-04-19T13:58:15.091Z,5.78
2023-04-19T14:01:57.112Z,7.35
2023-04-19T14:05:39.042Z,6.90
2023-04-19T14:09:20.993Z,7.38
2023-04-19T14:13:03.478Z,9.98
2023-04-19T14:16:45.569Z,5.30
2023-04-19T14:20:27.870Z,7.70
2023-04-19T14:24:09.828Z,5.53
2023-04-19T14:27:51.860Z,6.47
2023-04-19T14:31:34.572Z,7.15
2023-04-19T14:35:16.498Z,5.93
2023-04-19T14:38:58.443Z,5.22
2023-04-19T14:42:40.566Z,5.72
2023-04-19T14:46:22.553Z,6.47
2023-04-19T14:50:04.782Z,5.97
2023-04-19T14:53:46.671Z,5.13
2023-04-19T14:57:28.649Z,7.72
2023-04-19T15:01:14.797Z,6.47
2023-04-19T15:04:57.111Z,6.32
2023-04-19T15:08:42.884Z,6.13
2023-04-19T15:12:24.780Z,6.70
2023-04-19T15:16:07.858Z,4.10
2023-04-19T15:19:49.870Z,4.85
2023-04-19T15:23:31.788Z,4.22
2023-04-19T15:27:13.721Z,6.82
2023-04-19T15:31:06.573Z,5.50
2023-04-19T15:34:48.506Z,4.93
2023-04-19T15:38:31.724Z,4.32
2023-04-19T15:42:13.868Z,3.60
2023-04-19T15:45:55.993Z,4.38
2023-04-19T15:49:37.966Z,7.15
2023-04-19T15:53:19.873Z,3.92
2023-04-19T15:57:01.864Z,5.35
2023-04-19T16:00:43.781Z,4.00
2023-04-19T16:04:26.001Z,5.43
2023-04-19T16:08:10.059Z,4.43
2023-04-19T16:11:52.106Z,3.58
2023-04-19T16:15:34.009Z,3.40
2023-04-19T16:19:16.564Z,4.53
2023-04-19T16:23:02.793Z,2.40
2023-04-19T16:26:44.751Z,3.95
2023-04-19T16:30:26.980Z,4.22
2023-04-19T16:34:08.968Z,4.50
2023-04-19T16:37:51.051Z,3.45
2023-04-19T16:41:33.039Z,3.80
2023-04-19T16:45:16.049Z,3.47
2023-04-19T16:48:59.198Z,2.95
2023-04-19T16:52:41.210Z,3.33
2023-04-19T16:56:24.254Z,3.20
2023-04-19T17:00:07.042Z,3.58
2023-04-19T17:03:49.164Z,4.75
2023-04-19T17:07:31.250Z,4.03
2023-04-19T17:11:13.182Z,3.53
2023-04-19T17:14:55.107Z,3.60
2023-04-19T17:18:37.022Z,3.80
2023-04-19T17:22:18.921Z,3.70
2023-04-19T17:26:00.858Z,4.55
2023-04-19T17:29:42.748Z,2.92
2023-04-19T17:33:24.704Z,3.50
2023-04-19T17:37:06.583Z,4.50
2023-04-19T17:40:48.639Z,5.40
2023-04-19T17:44:31.111Z,4.65
2023-04-19T17:48:13.128Z,4.28
2023-04-19T17:51:56.323Z,4.10
2023-04-19T17:55:38.216Z,3.90
2023-04-19T17:59:20.159Z,7.22
2023-04-19T18:03:02.219Z,5.13
2023-04-19T18:06:44.340Z,3.88
2023-04-19T18:10:26.492Z,3.70
2023-04-19T18:14:08.466Z,4.20
2023-04-19T18:17:50.776Z,3.97
2023-04-19T18:21:33.624Z,3.88
2023-04-19T18:25:15.630Z,3.25
2023-04-19T18:28:57.546Z,8.43
2023-04-19T18:32:39.649Z,3.03
2023-04-19T18:36:21.636Z,3.60
2023-04-19T18:40:07.412Z,3.55
2023-04-19T18:44:13.202Z,3.10
2023-04-19T18:47:51.312Z,3.92
2023-04-19T18:51:33.256Z,5.75
2023-04-19T18:55:16.106Z,2.72
2023-04-19T18:58:58.173Z,5.88
2023-04-19T19:02:41.187Z,2.90
2023-04-19T19:06:23.793Z,4.05
2023-04-19T19:10:18.226Z,4.35
2023-04-19T19:14:03.532Z,3.13
2023-04-19T19:17:49.216Z,3.92
2023-04-19T19:25:14.448Z,3.50
2023-04-19T19:28:57.358Z,3.08
2023-04-19T19:32:40.334Z,4.18
2023-04-19T19:36:22.321Z,6.90
2023-04-19T19:40:06.750Z,4.15
2023-04-19T19:43:48.670Z,3.38
2023-04-19T19:47:33.068Z,2.55
2023-04-19T19:51:44.136Z,5.00
2023-04-19T19:55:17.858Z,2.13
2023-04-19T19:58:59.882Z,3.95
2023-04-19T20:02:54.306Z,2.88
2023-04-19T20:07:25.217Z,5.03
2023-04-19T20:10:41.639Z,5.45
2023-04-19T20:14:24.506Z,3.63
2023-04-19T20:18:08.144Z,4.35
2023-04-19T20:21:50.070Z,3.38
2023-04-19T20:25:32.787Z,3.17
2023-04-19T20:29:14.922Z,3.03
2023-04-19T20:32:57.179Z,3.95
2023-04-19T20:36:40.499Z,2.78
2023-04-19T20:40:23.079Z,2.90
2023-04-19T20:44:05.428Z,2.63
2023-04-19T20:47:47.425Z,6.28
2023-04-19T20:51:29.453Z,2.47
2023-04-19T20:55:11.416Z,4.45
2023-04-19T20:58:53.453Z,3.92
2023-04-19T21:02:35.881Z,3.75
2023-04-19T21:06:17.951Z,2.83
2023-04-19T21:10:00.310Z,4.25
2023-04-19T21:13:42.331Z,2.55
2023-04-19T21:17:24.282Z,3.42
2023-04-19T21:21:06.195Z,3.88
2023-04-19T21:24:48.219Z,2.53
2023-04-19T21:28:30.237Z,3.13
2023-04-19T21:32:12.157Z,2.88
2023-04-19T21:35:54.083Z,2.42
2023-04-19T21:39:36.071Z,3.60
2023-04-19T21:43:18.036Z,3.67
2023-04-19T21:47:00.070Z,5.05
2023-04-19T21:50:42.048Z,6.22
2023-04-19T21:54:33.273Z,4.95
2023-04-19T21:58:16.170Z,6.55
2023-04-19T22:01:59.162Z,7.38
2023-04-19T22:05:41.165Z,4.53
2023-04-19T22:09:23.281Z,7.97
2023-04-19T22:13:05.277Z,4.15
2023-04-19T22:16:47.615Z,4.55
2023-04-19T22:20:32.044Z,3.42
2023-04-19T22:24:14.155Z,6.07
2023-04-19T22:27:56.117Z,3.38
2023-04-19T22:31:38.053Z,4.80
2023-04-19T22:35:22.554Z,4.50
2023-04-19T22:39:05.057Z,4.25
2023-04-19T22:42:46.896Z,2.88
2023-04-19T22:46:28.898Z,5.82
2023-04-19T22:50:11.467Z,4.70
2023-04-19T22:53:53.444Z,4.40
2023-04-19T22:57:35.328Z,5.28
2023-04-19T23:01:17.300Z,3.40
2023-04-19T23:05:00.640Z,4.00
2023-04-19T23:08:42.568Z,3.42
2023-04-19T23:12:24.426Z,4.05
2023-04-19T23:16:06.437Z,4.70
2023-04-19T23:19:48.394Z,5.43
2023-04-19T23:23:30.403Z,3.97
2023-04-19T23:27:12.906Z,6.72
2023-04-19T23:30:54.868Z,8.15
2023-04-19T23:34:36.731Z,5.30
2023-04-19T23:38:19.254Z,4.38
2023-04-19T23:42:02.188Z,3.05
2023-04-19T23:45:44.506Z,2.42
2023-04-19T23:49:26.410Z,2.72
2023-04-19T23:53:08.274Z,4.22
2023-04-19T23:56:50.105Z,4.30
